sensor_id;sensor_type;location;lat;lon;timestamp;P1;durP1;ratioP1;P2;durP2;ratioP2
37529;SDS011;23374;52.758;6.872;2023-06-19T00:01:31;8.20;;;4.97;;
37529;SDS011;23374;52.758;6.872;2023-06-19T00:03:52;7.70;;;4.80;;
37529;SDS011;23374;52.758;6.872;2023-06-19T00:06:12;7.93;;;5.27;;
37529;SDS011;23374;52.758;6.872;2023-06-19T00:08:32;7.67;;;4.90;;
37529;SDS011;23374;52.758;6.872;2023-06-19T00:10:54;7.27;;;4.83;;
37529;SDS011;23374;52.758;6.872;2023-06-19T00:13:14;7.20;;;4.73;;
37529;SDS011;23374;52.758;6.872;2023-06-19T00:15:35;9.17;;;5.17;;
37529;SDS011;23374;52.758;6.872;2023-06-19T00:17:56;7.00;;;4.33;;
37529;SDS011;23374;52.758;6.872;2023-06-19T00:20:16;7.73;;;5.60;;
37529;SDS011;23374;52.758;6.872;2023-06-19T00:22:37;5.70;;;4.40;;
37529;SDS011;23374;52.758;6.872;2023-06-19T00:24:58;5.37;;;4.37;;
37529;SDS011;23374;52.758;6.872;2023-06-19T00:27:18;6.07;;;4.63;;
37529;SDS011;23374;52.758;6.872;2023-06-19T00:29:39;5.83;;;4.87;;
37529;SDS011;23374;52.758;6.872;2023-06-19T00:32:00;8.87;;;4.87;;
37529;SDS011;23374;52.758;6.872;2023-06-19T00:34:20;8.33;;;5.20;;
37529;SDS011;23374;52.758;6.872;2023-06-19T00:36:43;7.40;;;4.80;;
37529;SDS011;23374;52.758;6.872;2023-06-19T00:39:04;7.00;;;4.60;;
37529;SDS011;23374;52.758;6.872;2023-06-19T00:42:47;6.63;;;4.80;;
37529;SDS011;23374;52.758;6.872;2023-06-19T00:45:08;7.13;;;5.07;;
37529;SDS011;23374;52.758;6.872;2023-06-19T00:47:29;7.00;;;4.50;;
37529;SDS011;23374;52.758;6.872;2023-06-19T00:49:50;7.43;;;4.43;;
37529;SDS011;23374;52.758;6.872;2023-06-19T00:52:11;7.53;;;4.53;;
37529;SDS011;23374;52.758;6.872;2023-06-19T00:54:31;7.10;;;4.80;;
37529;SDS011;23374;52.758;6.872;2023-06-19T00:56:52;10.43;;;5.03;;
37529;SDS011;23374;52.758;6.872;2023-06-19T00:59:15;6.37;;;4.57;;
37529;SDS011;23374;52.758;6.872;2023-06-19T01:04:04;7.13;;;4.93;;
37529;SDS011;23374;52.758;6.872;2023-06-19T01:06:27;8.60;;;4.83;;
37529;SDS011;23374;52.758;6.872;2023-06-19T01:09:16;7.63;;;4.73;;
37529;SDS011;23374;52.758;6.872;2023-06-19T01:11:48;6.30;;;4.90;;
37529;SDS011;23374;52.758;6.872;2023-06-19T01:14:23;6.57;;;4.90;;
37529;SDS011;23374;52.758;6.872;2023-06-19T01:16:47;7.67;;;4.70;;
37529;SDS011;23374;52.758;6.872;2023-06-19T01:19:10;6.70;;;5.40;;
37529;SDS011;23374;52.758;6.872;2023-06-19T01:21:35;7.87;;;4.27;;
37529;SDS011;23374;52.758;6.872;2023-06-19T01:23:57;6.83;;;5.03;;
37529;SDS011;23374;52.758;6.872;2023-06-19T01:26:17;6.87;;;4.67;;
37529;SDS011;23374;52.758;6.872;2023-06-19T01:28:40;6.73;;;5.17;;
37529;SDS011;23374;52.758;6.872;2023-06-19T01:31:05;6.80;;;5.27;;
37529;SDS011;23374;52.758;6.872;2023-06-19T01:33:40;8.60;;;5.03;;
37529;SDS011;23374;52.758;6.872;2023-06-19T01:36:03;10.17;;;4.83;;
37529;SDS011;23374;52.758;6.872;2023-06-19T01:38:27;6.57;;;4.57;;
37529;SDS011;23374;52.758;6.872;2023-06-19T01:42:53;7.73;;;5.50;;
37529;SDS011;23374;52.758;6.872;2023-06-19T01:45:14;7.00;;;5.23;;
37529;SDS011;23374;52.758;6.872;2023-06-19T01:47:34;8.73;;;5.07;;
37529;SDS011;23374;52.758;6.872;2023-06-19T01:49:55;7.63;;;5.27;;
37529;SDS011;23374;52.758;6.872;2023-06-19T01:52:16;8.93;;;5.07;;
37529;SDS011;23374;52.758;6.872;2023-06-19T01:54:36;5.97;;;4.70;;
37529;SDS011;23374;52.758;6.872;2023-06-19T01:56:57;7.23;;;4.90;;
37529;SDS011;23374;52.758;6.872;2023-06-19T01:59:18;6.27;;;4.77;;
37529;SDS011;23374;52.758;6.872;2023-06-19T02:01:39;7.50;;;5.40;;
37529;SDS011;23374;52.758;6.872;2023-06-19T02:03:59;7.37;;;5.17;;
37529;SDS011;23374;52.758;6.872;2023-06-19T02:06:20;7.93;;;4.83;;
37529;SDS011;23374;52.758;6.872;2023-06-19T02:08:41;7.70;;;5.30;;
37529;SDS011;23374;52.758;6.872;2023-06-19T02:11:01;6.00;;;4.77;;
37529;SDS011;23374;52.758;6.872;2023-06-19T02:13:21;6.97;;;4.77;;
37529;SDS011;23374;52.758;6.872;2023-06-19T02:15:42;5.90;;;4.53;;
37529;SDS011;23374;52.758;6.872;2023-06-19T02:18:03;5.93;;;4.97;;
37529;SDS011;23374;52.758;6.872;2023-06-19T02:20:25;8.83;;;5.03;;
37529;SDS011;23374;52.758;6.872;2023-06-19T02:22:45;7.73;;;4.90;;
37529;SDS011;23374;52.758;6.872;2023-06-19T02:25:06;8.93;;;5.17;;
37529;SDS011;23374;52.758;6.872;2023-06-19T02:27:26;7.17;;;5.53;;
37529;SDS011;23374;52.758;6.872;2023-06-19T02:29:47;7.07;;;4.97;;
37529;SDS011;23374;52.758;6.872;2023-06-19T02:32:07;6.93;;;5.50;;
37529;SDS011;23374;52.758;6.872;2023-06-19T02:34:28;7.83;;;5.37;;
37529;SDS011;23374;52.758;6.872;2023-06-19T02:36:48;6.77;;;5.20;;
37529;SDS011;23374;52.758;6.872;2023-06-19T02:39:09;6.67;;;5.13;;
37529;SDS011;23374;52.758;6.872;2023-06-19T02:41:29;8.63;;;5.70;;
37529;SDS011;23374;52.758;6.872;2023-06-19T02:43:50;7.77;;;5.33;;
37529;SDS011;23374;52.758;6.872;2023-06-19T02:46:10;8.13;;;4.80;;
37529;SDS011;23374;52.758;6.872;2023-06-19T02:48:31;6.60;;;5.40;;
37529;SDS011;23374;52.758;6.872;2023-06-19T02:50:51;7.57;;;4.93;;
37529;SDS011;23374;52.758;6.872;2023-06-19T02:53:11;6.13;;;4.83;;
37529;SDS011;23374;52.758;6.872;2023-06-19T02:55:32;8.53;;;5.20;;
37529;SDS011;23374;52.758;6.872;2023-06-19T02:57:52;5.80;;;4.70;;
37529;SDS011;23374;52.758;6.872;2023-06-19T03:00:14;8.30;;;5.23;;
37529;SDS011;23374;52.758;6.872;2023-06-19T03:02:35;7.00;;;4.77;;
37529;SDS011;23374;52.758;6.872;2023-06-19T03:04:55;6.93;;;5.30;;
37529;SDS011;23374;52.758;6.872;2023-06-19T03:07:15;5.30;;;4.30;;
37529;SDS011;23374;52.758;6.872;2023-06-19T03:09:36;9.33;;;4.50;;
37529;SDS011;23374;52.758;6.872;2023-06-19T03:11:57;6.40;;;4.27;;
37529;SDS011;23374;52.758;6.872;2023-06-19T03:14:17;6.80;;;4.83;;
37529;SDS011;23374;52.758;6.872;2023-06-19T03:16:37;6.63;;;4.80;;
37529;SDS011;23374;52.758;6.872;2023-06-19T03:18:58;6.37;;;4.67;;
37529;SDS011;23374;52.758;6.872;2023-06-19T03:21:18;7.93;;;4.43;;
37529;SDS011;23374;52.758;6.872;2023-06-19T03:23:39;6.27;;;4.60;;
37529;SDS011;23374;52.758;6.872;2023-06-19T03:26:03;8.23;;;4.67;;
37529;SDS011;23374;52.758;6.872;2023-06-19T03:28:24;6.37;;;4.33;;
37529;SDS011;23374;52.758;6.872;2023-06-19T03:30:46;5.30;;;4.27;;
37529;SDS011;23374;52.758;6.872;2023-06-19T03:33:09;7.27;;;4.37;;
37529;SDS011;23374;52.758;6.872;2023-06-19T03:35:30;7.23;;;4.47;;
37529;SDS011;23374;52.758;6.872;2023-06-19T03:37:51;6.57;;;4.87;;
37529;SDS011;23374;52.758;6.872;2023-06-19T03:40:11;6.57;;;4.40;;
37529;SDS011;23374;52.758;6.872;2023-06-19T03:42:33;8.57;;;4.90;;
37529;SDS011;23374;52.758;6.872;2023-06-19T03:44:54;7.93;;;4.43;;
37529;SDS011;23374;52.758;6.872;2023-06-19T03:47:15;7.20;;;4.67;;
37529;SDS011;23374;52.758;6.872;2023-06-19T03:49:36;8.90;;;4.37;;
37529;SDS011;23374;52.758;6.872;2023-06-19T03:51:56;8.00;;;4.20;;
37529;SDS011;23374;52.758;6.872;2023-06-19T03:54:17;5.83;;;3.97;;
37529;SDS011;23374;52.758;6.872;2023-06-19T03:56:37;6.87;;;3.87;;
37529;SDS011;23374;52.758;6.872;2023-06-19T03:58:58;6.17;;;3.70;;
37529;SDS011;23374;52.758;6.872;2023-06-19T04:01:18;4.33;;;3.50;;
37529;SDS011;23374;52.758;6.872;2023-06-19T04:03:38;5.50;;;3.40;;
37529;SDS011;23374;52.758;6.872;2023-06-19T04:05:59;4.90;;;3.43;;
37529;SDS011;23374;52.758;6.872;2023-06-19T04:08:19;4.27;;;3.30;;
37529;SDS011;23374;52.758;6.872;2023-06-19T04:10:39;5.43;;;3.33;;
37529;SDS011;23374;52.758;6.872;2023-06-19T04:13:00;4.77;;;3.27;;
37529;SDS011;23374;52.758;6.872;2023-06-19T04:15:22;5.73;;;3.67;;
37529;SDS011;23374;52.758;6.872;2023-06-19T04:17:42;4.73;;;3.77;;
37529;SDS011;23374;52.758;6.872;2023-06-19T04:20:04;5.00;;;3.70;;
37529;SDS011;23374;52.758;6.872;2023-06-19T04:22:30;5.03;;;3.27;;
37529;SDS011;23374;52.758;6.872;2023-06-19T04:24:51;5.40;;;3.60;;
37529;SDS011;23374;52.758;6.872;2023-06-19T04:27:11;3.67;;;2.97;;
37529;SDS011;23374;52.758;6.872;2023-06-19T04:29:32;7.67;;;3.57;;
37529;SDS011;23374;52.758;6.872;2023-06-19T04:31:52;4.80;;;3.30;;
37529;SDS011;23374;52.758;6.872;2023-06-19T04:34:15;5.23;;;3.13;;
37529;SDS011;23374;52.758;6.872;2023-06-19T04:36:36;4.67;;;3.33;;
37529;SDS011;23374;52.758;6.872;2023-06-19T04:38:57;4.33;;;3.17;;
37529;SDS011;23374;52.758;6.872;2023-06-19T04:41:21;4.83;;;3.10;;
37529;SDS011;23374;52.758;6.872;2023-06-19T04:43:41;5.87;;;3.40;;
37529;SDS011;23374;52.758;6.872;2023-06-19T04:46:01;5.93;;;3.33;;
37529;SDS011;23374;52.758;6.872;2023-06-19T04:48:23;6.17;;;3.17;;
37529;SDS011;23374;52.758;6.872;2023-06-19T04:50:45;5.67;;;3.53;;
37529;SDS011;23374;52.758;6.872;2023-06-19T04:53:06;4.30;;;2.90;;
37529;SDS011;23374;52.758;6.872;2023-06-19T04:55:26;4.27;;;3.00;;
37529;SDS011;23374;52.758;6.872;2023-06-19T04:57:52;4.67;;;2.77;;
37529;SDS011;23374;52.758;6.872;2023-06-19T05:00:14;3.50;;;2.53;;
37529;SDS011;23374;52.758;6.872;2023-06-19T05:02:38;4.70;;;3.10;;
37529;SDS011;23374;52.758;6.872;2023-06-19T05:04:59;5.60;;;2.87;;
37529;SDS011;23374;52.758;6.872;2023-06-19T05:07:22;6.43;;;2.70;;
37529;SDS011;23374;52.758;6.872;2023-06-19T05:09:42;3.50;;;2.60;;
37529;SDS011;23374;52.758;6.872;2023-06-19T05:12:03;4.07;;;2.73;;
37529;SDS011;23374;52.758;6.872;2023-06-19T05:14:25;3.20;;;2.23;;
37529;SDS011;23374;52.758;6.872;2023-06-19T05:16:45;5.10;;;2.60;;
37529;SDS011;23374;52.758;6.872;2023-06-19T05:19:05;5.37;;;2.30;;
37529;SDS011;23374;52.758;6.872;2023-06-19T05:21:25;3.97;;;2.57;;
37529;SDS011;23374;52.758;6.872;2023-06-19T05:23:46;7.40;;;2.90;;
37529;SDS011;23374;52.758;6.872;2023-06-19T05:26:10;3.47;;;2.43;;
37529;SDS011;23374;52.758;6.872;2023-06-19T05:28:30;4.10;;;2.43;;
37529;SDS011;23374;52.758;6.872;2023-06-19T05:30:50;4.83;;;2.60;;
37529;SDS011;23374;52.758;6.872;2023-06-19T05:33:11;6.40;;;3.00;;
37529;SDS011;23374;52.758;6.872;2023-06-19T05:35:35;4.33;;;2.73;;
37529;SDS011;23374;52.758;6.872;2023-06-19T05:37:55;5.23;;;2.47;;
37529;SDS011;23374;52.758;6.872;2023-06-19T05:40:15;3.73;;;2.47;;
37529;SDS011;23374;52.758;6.872;2023-06-19T05:42:36;3.67;;;2.57;;
37529;SDS011;23374;52.758;6.872;2023-06-19T05:44:57;4.43;;;2.70;;
37529;SDS011;23374;52.758;6.872;2023-06-19T05:47:17;3.37;;;2.60;;
37529;SDS011;23374;52.758;6.872;2023-06-19T05:49:40;5.77;;;2.63;;
37529;SDS011;23374;52.758;6.872;2023-06-19T05:52:00;4.33;;;2.77;;
37529;SDS011;23374;52.758;6.872;2023-06-19T05:54:21;4.43;;;2.70;;
37529;SDS011;23374;52.758;6.872;2023-06-19T05:56:41;8.13;;;2.33;;
37529;SDS011;23374;52.758;6.872;2023-06-19T05:59:01;3.10;;;2.70;;
37529;SDS011;23374;52.758;6.872;2023-06-19T06:01:22;5.90;;;2.90;;
37529;SDS011;23374;52.758;6.872;2023-06-19T06:03:43;5.63;;;2.60;;
37529;SDS011;23374;52.758;6.872;2023-06-19T06:06:04;3.53;;;2.57;;
37529;SDS011;23374;52.758;6.872;2023-06-19T06:08:24;4.07;;;2.60;;
37529;SDS011;23374;52.758;6.872;2023-06-19T06:10:44;2.70;;;2.30;;
37529;SDS011;23374;52.758;6.872;2023-06-19T06:13:04;4.93;;;2.73;;
37529;SDS011;23374;52.758;6.872;2023-06-19T06:15:25;3.00;;;2.27;;
37529;SDS011;23374;52.758;6.872;2023-06-19T06:17:46;3.77;;;2.67;;
37529;SDS011;23374;52.758;6.872;2023-06-19T06:20:07;3.83;;;2.17;;
37529;SDS011;23374;52.758;6.872;2023-06-19T06:22:31;3.67;;;2.67;;
37529;SDS011;23374;52.758;6.872;2023-06-19T06:24:51;3.77;;;2.63;;
37529;SDS011;23374;52.758;6.872;2023-06-19T06:27:13;2.67;;;2.07;;
37529;SDS011;23374;52.758;6.872;2023-06-19T06:29:33;4.13;;;2.77;;
37529;SDS011;23374;52.758;6.872;2023-06-19T06:32:03;4.50;;;2.77;;
37529;SDS011;23374;52.758;6.872;2023-06-19T06:34:27;4.03;;;2.43;;
37529;SDS011;23374;52.758;6.872;2023-06-19T06:36:48;4.43;;;2.80;;
37529;SDS011;23374;52.758;6.872;2023-06-19T06:39:09;4.53;;;2.80;;
37529;SDS011;23374;52.758;6.872;2023-06-19T06:41:30;3.17;;;2.37;;
37529;SDS011;23374;52.758;6.872;2023-06-19T06:43:50;5.00;;;2.77;;
37529;SDS011;23374;52.758;6.872;2023-06-19T06:46:10;3.67;;;2.60;;
37529;SDS011;23374;52.758;6.872;2023-06-19T06:48:31;5.00;;;2.60;;
37529;SDS011;23374;52.758;6.872;2023-06-19T06:50:51;6.53;;;3.07;;
37529;SDS011;23374;52.758;6.872;2023-06-19T06:53:20;4.13;;;3.00;;
37529;SDS011;23374;52.758;6.872;2023-06-19T06:55:40;4.43;;;3.03;;
37529;SDS011;23374;52.758;6.872;2023-06-19T06:58:00;4.53;;;3.00;;
37529;SDS011;23374;52.758;6.872;2023-06-19T07:00:21;4.07;;;2.80;;
37529;SDS011;23374;52.758;6.872;2023-06-19T07:02:41;4.37;;;3.30;;
37529;SDS011;23374;52.758;6.872;2023-06-19T07:05:02;3.30;;;2.63;;
37529;SDS011;23374;52.758;6.872;2023-06-19T07:07:24;4.77;;;3.13;;
37529;SDS011;23374;52.758;6.872;2023-06-19T07:09:44;4.00;;;3.27;;
37529;SDS011;23374;52.758;6.872;2023-06-19T07:12:06;3.83;;;3.00;;
37529;SDS011;23374;52.758;6.872;2023-06-19T07:14:27;4.77;;;2.70;;
37529;SDS011;23374;52.758;6.872;2023-06-19T07:16:47;4.10;;;2.97;;
37529;SDS011;23374;52.758;6.872;2023-06-19T07:19:08;4.40;;;3.07;;
37529;SDS011;23374;52.758;6.872;2023-06-19T07:21:30;6.10;;;3.30;;
37529;SDS011;23374;52.758;6.872;2023-06-19T07:23:51;4.53;;;3.30;;
37529;SDS011;23374;52.758;6.872;2023-06-19T07:26:13;6.00;;;3.70;;
37529;SDS011;23374;52.758;6.872;2023-06-19T07:28:34;4.97;;;3.03;;
37529;SDS011;23374;52.758;6.872;2023-06-19T07:30:56;5.17;;;3.30;;
37529;SDS011;23374;52.758;6.872;2023-06-19T07:33:16;5.00;;;3.00;;
37529;SDS011;23374;52.758;6.872;2023-06-19T07:35:37;6.13;;;3.13;;
37529;SDS011;23374;52.758;6.872;2023-06-19T07:37:57;5.20;;;2.97;;
37529;SDS011;23374;52.758;6.872;2023-06-19T07:40:17;4.03;;;2.93;;
37529;SDS011;23374;52.758;6.872;2023-06-19T07:42:38;3.77;;;2.87;;
37529;SDS011;23374;52.758;6.872;2023-06-19T07:44:58;4.90;;;3.23;;
37529;SDS011;23374;52.758;6.872;2023-06-19T07:47:19;5.03;;;3.67;;
37529;SDS011;23374;52.758;6.872;2023-06-19T07:49:40;5.30;;;3.50;;
37529;SDS011;23374;52.758;6.872;2023-06-19T07:52:01;3.80;;;3.20;;
37529;SDS011;23374;52.758;6.872;2023-06-19T07:54:22;5.60;;;3.57;;
37529;SDS011;23374;52.758;6.872;2023-06-19T07:56:42;5.93;;;4.20;;
37529;SDS011;23374;52.758;6.872;2023-06-19T07:59:03;9.40;;;3.47;;
37529;SDS011;23374;52.758;6.872;2023-06-19T08:01:23;3.13;;;2.70;;
37529;SDS011;23374;52.758;6.872;2023-06-19T08:03:43;4.20;;;2.97;;
37529;SDS011;23374;52.758;6.872;2023-06-19T08:06:03;4.20;;;3.03;;
37529;SDS011;23374;52.758;6.872;2023-06-19T08:08:24;3.87;;;2.93;;
37529;SDS011;23374;52.758;6.872;2023-06-19T08:10:44;4.30;;;2.83;;
37529;SDS011;23374;52.758;6.872;2023-06-19T08:13:05;4.63;;;2.83;;
37529;SDS011;23374;52.758;6.872;2023-06-19T08:15:26;3.90;;;2.80;;
37529;SDS011;23374;52.758;6.872;2023-06-19T08:17:46;3.63;;;2.90;;
37529;SDS011;23374;52.758;6.872;2023-06-19T08:20:07;4.10;;;3.10;;
37529;SDS011;23374;52.758;6.872;2023-06-19T08:22:29;7.67;;;3.30;;
37529;SDS011;23374;52.758;6.872;2023-06-19T08:24:49;4.83;;;3.30;;
37529;SDS011;23374;52.758;6.872;2023-06-19T08:27:10;5.17;;;3.53;;
37529;SDS011;23374;52.758;6.872;2023-06-19T08:29:30;4.87;;;3.60;;
37529;SDS011;23374;52.758;6.872;2023-06-19T08:31:51;3.40;;;2.83;;
37529;SDS011;23374;52.758;6.872;2023-06-19T08:34:12;3.63;;;3.00;;
37529;SDS011;23374;52.758;6.872;2023-06-19T08:36:33;6.50;;;3.40;;
37529;SDS011;23374;52.758;6.872;2023-06-19T08:38:53;5.33;;;3.17;;
37529;SDS011;23374;52.758;6.872;2023-06-19T08:41:14;4.47;;;3.60;;
37529;SDS011;23374;52.758;6.872;2023-06-19T08:43:34;5.47;;;3.77;;
37529;SDS011;23374;52.758;6.872;2023-06-19T08:46:10;5.23;;;4.00;;
37529;SDS011;23374;52.758;6.872;2023-06-19T08:48:34;5.87;;;4.43;;
37529;SDS011;23374;52.758;6.872;2023-06-19T08:50:56;5.23;;;4.20;;
37529;SDS011;23374;52.758;6.872;2023-06-19T08:53:16;7.33;;;5.00;;
37529;SDS011;23374;52.758;6.872;2023-06-19T08:55:37;7.30;;;4.90;;
37529;SDS011;23374;52.758;6.872;2023-06-19T08:57:57;8.20;;;5.40;;
37529;SDS011;23374;52.758;6.872;2023-06-19T09:00:26;6.57;;;4.70;;
37529;SDS011;23374;52.758;6.872;2023-06-19T09:02:47;5.90;;;4.53;;
37529;SDS011;23374;52.758;6.872;2023-06-19T09:05:13;9.00;;;4.90;;
37529;SDS011;23374;52.758;6.872;2023-06-19T09:07:35;6.23;;;4.60;;
37529;SDS011;23374;52.758;6.872;2023-06-19T09:09:56;6.80;;;4.87;;
37529;SDS011;23374;52.758;6.872;2023-06-19T09:12:17;8.30;;;4.20;;
37529;SDS011;23374;52.758;6.872;2023-06-19T09:14:40;6.17;;;4.47;;
37529;SDS011;23374;52.758;6.872;2023-06-19T09:17:03;6.30;;;4.00;;
37529;SDS011;23374;52.758;6.872;2023-06-19T09:19:24;5.17;;;3.93;;
37529;SDS011;23374;52.758;6.872;2023-06-19T09:21:45;5.33;;;3.87;;
37529;SDS011;23374;52.758;6.872;2023-06-19T09:24:06;5.17;;;3.73;;
37529;SDS011;23374;52.758;6.872;2023-06-19T09:26:28;4.07;;;3.30;;
37529;SDS011;23374;52.758;6.872;2023-06-19T09:28:48;4.93;;;3.67;;
37529;SDS011;23374;52.758;6.872;2023-06-19T09:31:10;5.43;;;3.50;;
37529;SDS011;23374;52.758;6.872;2023-06-19T09:33:33;4.87;;;3.27;;
37529;SDS011;23374;52.758;6.872;2023-06-19T09:35:55;5.90;;;3.63;;
37529;SDS011;23374;52.758;6.872;2023-06-19T09:38:17;3.90;;;3.40;;
37529;SDS011;23374;52.758;6.872;2023-06-19T09:40:39;5.43;;;3.80;;
37529;SDS011;23374;52.758;6.872;2023-06-19T09:42:59;5.40;;;4.27;;
37529;SDS011;23374;52.758;6.872;2023-06-19T09:45:22;5.93;;;4.50;;
37529;SDS011;23374;52.758;6.872;2023-06-19T09:47:46;7.53;;;5.03;;
37529;SDS011;23374;52.758;6.872;2023-06-19T09:50:13;7.70;;;6.17;;
37529;SDS011;23374;52.758;6.872;2023-06-19T09:52:35;8.63;;;6.10;;
37529;SDS011;23374;52.758;6.872;2023-06-19T09:54:55;9.37;;;5.80;;
37529;SDS011;23374;52.758;6.872;2023-06-19T09:57:17;9.00;;;6.43;;
37529;SDS011;23374;52.758;6.872;2023-06-19T09:59:39;8.93;;;6.27;;
37529;SDS011;23374;52.758;6.872;2023-06-19T10:02:01;8.17;;;6.47;;
37529;SDS011;23374;52.758;6.872;2023-06-19T10:04:25;9.07;;;6.97;;
37529;SDS011;23374;52.758;6.872;2023-06-19T10:06:46;9.07;;;7.17;;
37529;SDS011;23374;52.758;6.872;2023-06-19T10:09:09;10.10;;;7.90;;
37529;SDS011;23374;52.758;6.872;2023-06-19T10:11:44;11.83;;;8.50;;
37529;SDS011;23374;52.758;6.872;2023-06-19T10:14:06;9.73;;;8.23;;
37529;SDS011;23374;52.758;6.872;2023-06-19T10:16:27;9.50;;;7.23;;
37529;SDS011;23374;52.758;6.872;2023-06-19T10:18:48;8.73;;;7.27;;
37529;SDS011;23374;52.758;6.872;2023-06-19T10:21:18;7.77;;;6.97;;
37529;SDS011;23374;52.758;6.872;2023-06-19T10:23:39;8.00;;;6.53;;
37529;SDS011;23374;52.758;6.872;2023-06-19T10:26:00;6.17;;;5.40;;
37529;SDS011;23374;52.758;6.872;2023-06-19T10:28:26;9.53;;;6.07;;
37529;SDS011;23374;52.758;6.872;2023-06-19T10:31:06;7.57;;;5.60;;
37529;SDS011;23374;52.758;6.872;2023-06-19T10:33:32;6.87;;;5.67;;
37529;SDS011;23374;52.758;6.872;2023-06-19T10:35:56;6.93;;;5.43;;
37529;SDS011;23374;52.758;6.872;2023-06-19T10:38:17;7.50;;;5.80;;
37529;SDS011;23374;52.758;6.872;2023-06-19T10:40:37;6.33;;;5.03;;
37529;SDS011;23374;52.758;6.872;2023-06-19T10:42:58;6.50;;;4.33;;
37529;SDS011;23374;52.758;6.872;2023-06-19T10:45:18;6.60;;;4.37;;
37529;SDS011;23374;52.758;6.872;2023-06-19T10:47:40;8.20;;;5.27;;
37529;SDS011;23374;52.758;6.872;2023-06-19T10:50:01;8.40;;;5.93;;
37529;SDS011;23374;52.758;6.872;2023-06-19T10:52:22;11.57;;;6.63;;
37529;SDS011;23374;52.758;6.872;2023-06-19T10:54:43;7.40;;;5.73;;
37529;SDS011;23374;52.758;6.872;2023-06-19T10:57:05;9.87;;;5.57;;
37529;SDS011;23374;52.758;6.872;2023-06-19T10:59:27;9.10;;;6.53;;
37529;SDS011;23374;52.758;6.872;2023-06-19T11:01:48;8.00;;;5.53;;
37529;SDS011;23374;52.758;6.872;2023-06-19T11:04:11;8.90;;;5.30;;
37529;SDS011;23374;52.758;6.872;2023-06-19T11:06:33;11.20;;;5.90;;
37529;SDS011;23374;52.758;6.872;2023-06-19T11:08:54;8.10;;;5.97;;
37529;SDS011;23374;52.758;6.872;2023-06-19T11:11:15;7.87;;;5.27;;
37529;SDS011;23374;52.758;6.872;2023-06-19T11:13:36;12.00;;;6.53;;
37529;SDS011;23374;52.758;6.872;2023-06-19T11:15:57;8.87;;;5.87;;
37529;SDS011;23374;52.758;6.872;2023-06-19T11:18:18;9.60;;;6.70;;
37529;SDS011;23374;52.758;6.872;2023-06-19T11:20:46;11.03;;;6.73;;
37529;SDS011;23374;52.758;6.872;2023-06-19T11:23:09;9.77;;;6.77;;
37529;SDS011;23374;52.758;6.872;2023-06-19T11:25:36;9.50;;;6.73;;
37529;SDS011;23374;52.758;6.872;2023-06-19T11:27:59;10.43;;;6.63;;
37529;SDS011;23374;52.758;6.872;2023-06-19T11:30:30;9.67;;;6.23;;
37529;SDS011;23374;52.758;6.872;2023-06-19T11:32:53;10.23;;;6.67;;
37529;SDS011;23374;52.758;6.872;2023-06-19T11:35:15;9.60;;;7.03;;
37529;SDS011;23374;52.758;6.872;2023-06-19T11:37:40;10.20;;;6.20;;
37529;SDS011;23374;52.758;6.872;2023-06-19T11:40:02;10.37;;;6.63;;
37529;SDS011;23374;52.758;6.872;2023-06-19T11:43:02;9.77;;;5.73;;
37529;SDS011;23374;52.758;6.872;2023-06-19T11:45:23;9.67;;;5.33;;
37529;SDS011;23374;52.758;6.872;2023-06-19T11:47:47;8.07;;;4.60;;
37529;SDS011;23374;52.758;6.872;2023-06-19T11:50:09;7.43;;;5.47;;
37529;SDS011;23374;52.758;6.872;2023-06-19T11:52:30;7.20;;;5.27;;
37529;SDS011;23374;52.758;6.872;2023-06-19T11:54:51;9.83;;;6.33;;
37529;SDS011;23374;52.758;6.872;2023-06-19T11:57:12;8.27;;;4.83;;
37529;SDS011;23374;52.758;6.872;2023-06-19T11:59:39;7.33;;;4.83;;
37529;SDS011;23374;52.758;6.872;2023-06-19T12:02:01;10.70;;;6.07;;
37529;SDS011;23374;52.758;6.872;2023-06-19T12:04:21;10.93;;;6.13;;
37529;SDS011;23374;52.758;6.872;2023-06-19T12:06:42;10.33;;;7.27;;
37529;SDS011;23374;52.758;6.872;2023-06-19T12:09:03;9.13;;;5.23;;
37529;SDS011;23374;52.758;6.872;2023-06-19T12:11:26;9.50;;;5.70;;
37529;SDS011;23374;52.758;6.872;2023-06-19T12:13:47;13.50;;;6.17;;
37529;SDS011;23374;52.758;6.872;2023-06-19T12:16:09;8.43;;;5.80;;
37529;SDS011;23374;52.758;6.872;2023-06-19T12:18:30;10.23;;;5.97;;
37529;SDS011;23374;52.758;6.872;2023-06-19T12:20:50;8.53;;;5.90;;
37529;SDS011;23374;52.758;6.872;2023-06-19T12:23:11;9.97;;;6.17;;
37529;SDS011;23374;52.758;6.872;2023-06-19T12:25:31;10.40;;;6.10;;
37529;SDS011;23374;52.758;6.872;2023-06-19T12:27:52;10.03;;;6.60;;
37529;SDS011;23374;52.758;6.872;2023-06-19T12:30:12;12.13;;;7.03;;
37529;SDS011;23374;52.758;6.872;2023-06-19T12:32:33;10.07;;;6.53;;
37529;SDS011;23374;52.758;6.872;2023-06-19T12:34:59;11.00;;;6.90;;
37529;SDS011;23374;52.758;6.872;2023-06-19T12:37:20;11.10;;;6.80;;
37529;SDS011;23374;52.758;6.872;2023-06-19T12:39:41;11.17;;;6.63;;
37529;SDS011;23374;52.758;6.872;2023-06-19T12:42:01;8.43;;;6.13;;
37529;SDS011;23374;52.758;6.872;2023-06-19T12:44:22;10.20;;;6.47;;
37529;SDS011;23374;52.758;6.872;2023-06-19T12:46:43;9.67;;;6.83;;
37529;SDS011;23374;52.758;6.872;2023-06-19T12:49:03;11.10;;;6.73;;
37529;SDS011;23374;52.758;6.872;2023-06-19T12:51:24;7.90;;;6.47;;
37529;SDS011;23374;52.758;6.872;2023-06-19T12:53:44;11.30;;;6.23;;
37529;SDS011;23374;52.758;6.872;2023-06-19T12:56:05;9.50;;;6.90;;
37529;SDS011;23374;52.758;6.872;2023-06-19T12:58:25;10.33;;;6.97;;
37529;SDS011;23374;52.758;6.872;2023-06-19T13:00:47;14.70;;;7.67;;
37529;SDS011;23374;52.758;6.872;2023-06-19T13:03:08;10.63;;;7.00;;
37529;SDS011;23374;52.758;6.872;2023-06-19T13:05:28;12.53;;;8.13;;
37529;SDS011;23374;52.758;6.872;2023-06-19T13:07:49;11.60;;;6.97;;
37529;SDS011;23374;52.758;6.872;2023-06-19T13:10:10;13.07;;;7.00;;
37529;SDS011;23374;52.758;6.872;2023-06-19T13:12:30;10.17;;;7.20;;
37529;SDS011;23374;52.758;6.872;2023-06-19T13:14:50;13.20;;;8.17;;
37529;SDS011;23374;52.758;6.872;2023-06-19T13:17:11;14.60;;;7.83;;
37529;SDS011;23374;52.758;6.872;2023-06-19T13:19:32;14.50;;;7.87;;
37529;SDS011;23374;52.758;6.872;2023-06-19T13:21:52;11.23;;;6.53;;
37529;SDS011;23374;52.758;6.872;2023-06-19T13:24:13;7.70;;;6.30;;
37529;SDS011;23374;52.758;6.872;2023-06-19T13:26:34;11.00;;;6.30;;
37529;SDS011;23374;52.758;6.872;2023-06-19T13:28:55;9.50;;;6.33;;
37529;SDS011;23374;52.758;6.872;2023-06-19T13:31:18;9.93;;;6.20;;
37529;SDS011;23374;52.758;6.872;2023-06-19T13:33:39;8.40;;;5.87;;
37529;SDS011;23374;52.758;6.872;2023-06-19T13:35:59;8.90;;;6.00;;
37529;SDS011;23374;52.758;6.872;2023-06-19T13:38:20;8.17;;;5.30;;
37529;SDS011;23374;52.758;6.872;2023-06-19T13:40:41;8.83;;;5.67;;
37529;SDS011;23374;52.758;6.872;2023-06-19T13:43:01;10.07;;;6.17;;
37529;SDS011;23374;52.758;6.872;2023-06-19T13:45:23;7.93;;;5.77;;
37529;SDS011;23374;52.758;6.872;2023-06-19T13:47:44;10.93;;;6.00;;
37529;SDS011;23374;52.758;6.872;2023-06-19T13:50:05;10.23;;;6.83;;
37529;SDS011;23374;52.758;6.872;2023-06-19T13:52:27;10.93;;;6.33;;
37529;SDS011;23374;52.758;6.872;2023-06-19T13:54:48;10.47;;;6.47;;
37529;SDS011;23374;52.758;6.872;2023-06-19T13:57:09;9.07;;;6.77;;
37529;SDS011;23374;52.758;6.872;2023-06-19T13:59:29;9.17;;;6.33;;
37529;SDS011;23374;52.758;6.872;2023-06-19T14:01:50;8.50;;;5.80;;
37529;SDS011;23374;52.758;6.872;2023-06-19T14:04:11;10.03;;;6.37;;
37529;SDS011;23374;52.758;6.872;2023-06-19T14:06:32;12.27;;;7.37;;
37529;SDS011;23374;52.758;6.872;2023-06-19T14:08:53;9.40;;;5.57;;
37529;SDS011;23374;52.758;6.872;2023-06-19T14:11:14;11.70;;;7.20;;
37529;SDS011;23374;52.758;6.872;2023-06-19T14:13:34;10.50;;;6.50;;
37529;SDS011;23374;52.758;6.872;2023-06-19T14:15:55;9.63;;;5.60;;
37529;SDS011;23374;52.758;6.872;2023-06-19T14:18:16;8.03;;;5.67;;